Terminal Aerodrome Forecast
Issued by NWS

Home | Current Version | Previous Version | Text Only | Print | Product List | Glossary On
Versions: 1 2 3 4 5 6 7 8 9 10 11 12 13 14 15 16
000
FTPQ31 PGUM 241140
TAFGUM
TAF

TAF
PGSN 241140Z 2412/2512 08012KT P6SM VCSH FEW015 BKN100
      TEMPO 2416/2420 08015G22KT -SHRA SCT015 OVC035
     FM242000 06011KT P6SM -SHRA SCT015 BKN035 OVC100
     FM250000 09011KT 6SM SHRA SCT015 BKN035 OVC100=

USA.gov is the U.S. government's official web portal to all federal, state and local government web resources and services.